Terminal Aerodrome Forecast
Issued by NWS Brownsville, TX

Home | Current Version | Previous Version | Text Only | Print | Product List | Glossary On
Versions: 1 2 3 4 5 6 7 8 9 10 11 12 13 14 15 16 17 18 19 20 21 22 23 24 25 26 27 28 29 30
000
FTUS44 KBRO 312333
TAFBRO
TAF
KBRO 312333Z 0100/0124 11008KT P6SM FEW025 SCT120 OVC150
     FM010600 VRB04KT P6SM SCT025 BKN200
     FM011200 33004KT P6SM VCSH SCT020 BKN150
     FM011700 09006KT P6SM VCSH SCT030 SCT150 OVC200=

USA.gov is the U.S. government's official web portal to all federal, state and local government web resources and services.